createdAt,value
2022-10-06T00:00:49.798Z,16.31
2022-10-06T00:01:49.797Z,16.15
2022-10-06T00:02:49.801Z,16.34
2022-10-06T00:03:49.785Z,16.26
2022-10-06T00:04:49.758Z,16.27
2022-10-06T00:05:49.752Z,16.41
2022-10-06T00:06:49.722Z,16.40
2022-10-06T00:07:49.717Z,16.34
2022-10-06T00:08:49.709Z,16.40
2022-10-06T00:09:49.695Z,16.44
2022-10-06T00:10:49.722Z,16.42
2022-10-06T00:11:49.671Z,16.49
2022-10-06T00:12:49.667Z,16.44
2022-10-06T00:13:49.669Z,16.42
2022-10-06T00:14:49.648Z,16.38
2022-10-06T00:15:49.698Z,16.44
2022-10-06T00:17:21.550Z,16.49
2022-10-06T00:17:49.621Z,16.42
2022-10-06T00:18:49.605Z,16.40
2022-10-06T00:19:49.589Z,16.45
2022-10-06T00:20:49.593Z,16.49
2022-10-06T00:21:49.571Z,16.49
2022-10-06T00:22:49.651Z,16.45
2022-10-06T00:23:49.546Z,16.42
2022-10-06T00:24:49.533Z,16.45
2022-10-06T00:25:49.547Z,16.30
2022-10-06T00:26:49.521Z,16.48
2022-10-06T00:27:49.501Z,16.40
2022-10-06T00:28:49.548Z,16.41
2022-10-06T00:29:49.491Z,16.37
2022-10-06T00:30:49.531Z,16.37
2022-10-06T00:31:49.460Z,16.42
2022-10-06T00:32:49.474Z,16.44
2022-10-06T00:33:49.449Z,16.42
2022-10-06T00:34:49.444Z,16.38
2022-10-06T00:35:49.450Z,16.40
2022-10-06T00:36:49.432Z,16.41
2022-10-06T00:37:49.413Z,16.41
2022-10-06T00:38:49.403Z,16.44
2022-10-06T00:39:49.386Z,16.44
2022-10-06T00:40:49.409Z,16.38
2022-10-06T00:41:49.382Z,16.40
2022-10-06T00:42:49.367Z,16.42
2022-10-06T00:43:49.349Z,16.38
2022-10-06T00:44:49.348Z,16.41
2022-10-06T00:45:49.481Z,16.41
2022-10-06T00:46:49.332Z,16.44
2022-10-06T00:47:49.314Z,16.53
2022-10-06T00:48:49.306Z,16.50
2022-10-06T00:49:49.301Z,16.50
2022-10-06T00:50:49.304Z,16.48
2022-10-06T00:51:49.270Z,16.45
2022-10-06T00:52:49.268Z,16.44
2022-10-06T00:53:49.258Z,16.52
2022-10-06T00:54:49.256Z,16.50
2022-10-06T00:55:49.253Z,16.52
2022-10-06T00:56:49.234Z,16.44
2022-10-06T00:57:49.222Z,16.44
2022-10-06T00:58:49.208Z,16.53
2022-10-06T00:59:49.195Z,16.44
2022-10-06T01:00:49.221Z,16.49
2022-10-06T01:01:49.264Z,16.48
2022-10-06T01:02:49.197Z,16.49
2022-10-06T01:03:49.164Z,16.38
2022-10-06T01:04:49.146Z,16.45
2022-10-06T01:05:49.164Z,16.40
2022-10-06T01:06:49.125Z,16.41
2022-10-06T01:07:49.118Z,16.42
2022-10-06T01:08:49.107Z,16.42
2022-10-06T01:09:49.105Z,16.42
2022-10-06T01:10:49.111Z,16.41
2022-10-06T01:11:49.079Z,16.42
2022-10-06T01:12:49.078Z,16.41
2022-10-06T01:13:49.074Z,16.38
2022-10-06T01:14:49.095Z,16.40
2022-10-06T01:15:50.131Z,16.44
2022-10-06T01:16:49.030Z,16.40
2022-10-06T01:17:49.025Z,16.41
2022-10-06T01:18:49.014Z,16.44
2022-10-06T01:19:48.999Z,16.52
2022-10-06T01:20:49.003Z,16.55
2022-10-06T01:21:48.989Z,16.58
2022-10-06T01:22:48.971Z,16.53
2022-10-06T01:23:48.967Z,16.56
2022-10-06T01:24:48.956Z,16.62
2022-10-06T01:25:48.970Z,16.71
2022-10-06T01:26:48.937Z,16.60
2022-10-06T01:27:48.925Z,16.68
2022-10-06T01:28:48.990Z,16.86
2022-10-06T01:29:48.906Z,16.85
2022-10-06T01:30:48.978Z,16.98
2022-10-06T01:31:48.879Z,16.95
2022-10-06T01:32:48.868Z,16.93
2022-10-06T01:33:48.866Z,16.89
2022-10-06T01:34:48.854Z,16.78
2022-10-06T01:35:48.857Z,16.75
2022-10-06T01:36:48.832Z,16.74
2022-10-06T01:37:48.829Z,16.80
2022-10-06T01:38:48.815Z,16.67
2022-10-06T01:39:48.799Z,16.74
2022-10-06T01:40:48.794Z,16.74
2022-10-06T01:41:48.807Z,16.71
2022-10-06T01:42:48.775Z,16.67
2022-10-06T01:43:48.759Z,16.53
2022-10-06T01:44:48.760Z,16.50
2022-10-06T01:45:48.746Z,16.49
2022-10-06T01:46:48.813Z,16.48
2022-10-06T01:47:48.732Z,16.40
2022-10-06T01:48:48.722Z,16.42
2022-10-06T01:49:48.730Z,16.33
2022-10-06T01:50:48.700Z,16.45
2022-10-06T01:51:48.707Z,16.38
2022-10-06T01:52:48.689Z,16.45
2022-10-06T01:53:48.671Z,16.30
2022-10-06T01:54:48.663Z,16.27
2022-10-06T01:55:48.654Z,16.26
2022-10-06T01:56:48.655Z,16.30
2022-10-06T01:57:48.630Z,16.37
2022-10-06T01:58:48.618Z,16.23
2022-10-06T01:59:53.881Z,16.33
2022-10-06T02:00:49.643Z,16.26
2022-10-06T02:01:48.637Z,16.26
2022-10-06T02:02:48.580Z,16.20
2022-10-06T02:03:48.572Z,16.20
2022-10-06T02:04:48.561Z,16.18
2022-10-06T02:05:48.544Z,16.23
2022-10-06T02:06:48.552Z,16.16
2022-10-06T02:07:48.526Z,16.18
2022-10-06T02:08:48.530Z,16.12
2022-10-06T02:09:48.511Z,16.15
2022-10-06T02:10:48.499Z,16.12
2022-10-06T02:11:48.507Z,16.01
2022-10-06T02:12:48.477Z,15.81
2022-10-06T02:13:48.471Z,15.61
2022-10-06T02:14:48.470Z,15.41
2022-10-06T02:15:48.484Z,15.28
2022-10-06T02:16:48.453Z,15.09
2022-10-06T02:17:48.436Z,15.06
2022-10-06T02:18:48.448Z,14.95
2022-10-06T02:19:48.414Z,14.93
2022-10-06T02:20:48.419Z,14.87
2022-10-06T02:21:48.510Z,14.99
2022-10-06T02:22:48.384Z,14.90
2022-10-06T02:23:48.365Z,14.84
2022-10-06T02:24:48.364Z,14.87
2022-10-06T02:25:48.374Z,14.90
2022-10-06T02:26:48.353Z,14.90
2022-10-06T02:27:48.339Z,14.87
2022-10-06T02:28:48.356Z,14.87
2022-10-06T02:29:48.314Z,14.83
2022-10-06T02:30:48.345Z,14.86
2022-10-06T02:31:48.295Z,14.83
2022-10-06T02:32:48.286Z,14.80
2022-10-06T02:33:48.278Z,14.81
2022-10-06T02:34:48.267Z,14.72
2022-10-06T02:35:48.280Z,14.67
2022-10-06T02:36:48.251Z,14.69
2022-10-06T02:37:48.234Z,14.62
2022-10-06T02:38:48.231Z,14.67
2022-10-06T02:39:48.208Z,14.71
2022-10-06T02:40:48.224Z,14.60
2022-10-06T02:41:48.200Z,14.65
2022-10-06T02:42:48.188Z,14.67
2022-10-06T02:43:48.171Z,14.53
2022-10-06T02:44:48.165Z,14.46
2022-10-06T02:45:48.177Z,14.54
2022-10-06T02:46:48.183Z,14.60
2022-10-06T02:47:48.133Z,14.65
2022-10-06T02:48:48.124Z,14.67
2022-10-06T02:49:48.123Z,14.56
2022-10-06T02:50:48.133Z,14.61
2022-10-06T02:51:48.092Z,14.54
2022-10-06T02:52:48.091Z,14.62
2022-10-06T02:53:48.090Z,14.68
2022-10-06T02:54:48.064Z,14.61
2022-10-06T02:55:48.077Z,14.52
2022-10-06T02:56:48.039Z,14.52
2022-10-06T02:57:49.035Z,14.53
2022-10-06T02:58:48.041Z,14.42
2022-10-06T02:59:48.017Z,14.50
2022-10-06T03:00:48.015Z,14.44
2022-10-06T03:01:48.100Z,14.49
2022-10-06T03:02:48.121Z,14.39
2022-10-06T03:03:47.988Z,14.49
2022-10-06T03:04:47.986Z,14.52
2022-10-06T03:05:47.966Z,14.50
2022-10-06T03:06:47.960Z,14.39
2022-10-06T03:07:47.942Z,14.46
2022-10-06T03:08:47.930Z,14.35
2022-10-06T03:09:47.927Z,14.43
2022-10-06T03:10:47.906Z,14.47
2022-10-06T03:11:47.923Z,14.39
2022-10-06T03:12:47.894Z,14.37
2022-10-06T03:13:47.884Z,14.46
2022-10-06T03:14:47.878Z,14.35
2022-10-06T03:15:47.892Z,14.39
2022-10-06T03:16:47.876Z,14.37
2022-10-06T03:17:47.839Z,14.38
2022-10-06T03:18:47.831Z,14.32
2022-10-06T03:19:47.827Z,14.39
2022-10-06T03:20:47.817Z,14.35
2022-10-06T03:21:47.825Z,14.39
2022-10-06T03:22:47.795Z,14.34
2022-10-06T03:23:47.782Z,14.25
2022-10-06T03:24:47.771Z,14.32
2022-10-06T03:25:47.769Z,14.38
2022-10-06T03:26:47.778Z,14.34
2022-10-06T03:27:47.748Z,14.38
2022-10-06T03:28:47.780Z,14.27
2022-10-06T03:29:47.719Z,14.32
2022-10-06T03:30:47.716Z,14.29
2022-10-06T03:31:47.794Z,14.43
2022-10-06T03:32:47.694Z,14.27
2022-10-06T03:33:47.684Z,14.27
2022-10-06T03:34:47.674Z,14.27
2022-10-06T03:35:47.668Z,14.31
2022-10-06T03:36:47.673Z,14.28
2022-10-06T03:37:47.642Z,14.20
2022-10-06T03:38:47.629Z,14.31
2022-10-06T03:39:47.629Z,14.24
2022-10-06T03:40:47.611Z,14.34
2022-10-06T03:41:47.624Z,14.21
2022-10-06T03:42:47.606Z,14.29
2022-10-06T03:43:47.579Z,14.24
2022-10-06T03:44:47.573Z,14.28
2022-10-06T03:45:47.572Z,14.16
2022-10-06T03:46:47.589Z,14.19
2022-10-06T03:47:48.541Z,14.09
2022-10-06T03:48:47.529Z,14.16
2022-10-06T03:49:47.524Z,14.21
2022-10-06T03:50:47.556Z,14.13
2022-10-06T03:51:47.506Z,14.12
2022-10-06T03:52:47.496Z,14.09
2022-10-06T03:53:47.477Z,14.14
2022-10-06T03:54:47.472Z,14.13
2022-10-06T03:55:47.482Z,13.95
2022-10-06T03:56:47.454Z,14.01
2022-10-06T03:57:47.445Z,14.02
2022-10-06T03:58:47.437Z,14.01
2022-10-06T03:59:47.429Z,14.04
2022-10-06T04:00:47.463Z,13.96
2022-10-06T04:01:47.468Z,13.84
2022-10-06T04:02:47.396Z,13.83
2022-10-06T04:03:47.391Z,13.79
2022-10-06T04:04:47.383Z,13.84
2022-10-06T04:05:47.387Z,13.77
2022-10-06T04:06:47.363Z,13.79
2022-10-06T04:07:47.354Z,13.83
2022-10-06T04:08:47.329Z,13.84
2022-10-06T04:09:47.327Z,13.76
2022-10-06T04:10:47.326Z,13.81
2022-10-06T04:11:47.298Z,13.79
2022-10-06T04:12:47.297Z,13.73
2022-10-06T04:13:47.287Z,13.71
2022-10-06T04:14:47.272Z,13.63
2022-10-06T04:15:47.292Z,13.67
2022-10-06T04:16:47.279Z,13.63
2022-10-06T04:17:47.237Z,13.65
2022-10-06T04:18:47.237Z,13.67
2022-10-06T04:19:47.222Z,13.63
2022-10-06T04:20:47.212Z,13.67
2022-10-06T04:21:47.221Z,13.63
2022-10-06T04:22:47.195Z,13.63
2022-10-06T04:23:47.194Z,13.62
2022-10-06T04:24:47.176Z,13.56
2022-10-06T04:25:47.181Z,13.52
2022-10-06T04:26:47.161Z,13.51
2022-10-06T04:27:47.145Z,13.62
2022-10-06T04:28:47.188Z,13.52
2022-10-06T04:29:47.125Z,13.47
2022-10-06T04:30:47.117Z,13.47
2022-10-06T04:31:47.208Z,13.46
2022-10-06T04:32:47.136Z,13.47
2022-10-06T04:33:47.080Z,13.30
2022-10-06T04:34:47.146Z,13.38
2022-10-06T04:35:47.067Z,13.40
2022-10-06T04:36:47.071Z,13.33
2022-10-06T04:37:47.047Z,13.40
2022-10-06T04:38:47.030Z,13.37
2022-10-06T04:39:47.024Z,13.33
2022-10-06T04:40:47.015Z,13.41
2022-10-06T04:41:47.019Z,13.32
2022-10-06T04:42:46.995Z,13.25
2022-10-06T04:43:46.988Z,13.29
2022-10-06T04:44:46.984Z,13.18
2022-10-06T04:45:46.997Z,13.17
2022-10-06T04:46:46.990Z,13.12
2022-10-06T04:47:46.947Z,13.17
2022-10-06T04:48:46.938Z,13.07
2022-10-06T04:49:46.927Z,13.18
2022-10-06T04:50:46.926Z,13.20
2022-10-06T04:51:46.934Z,13.17
2022-10-06T04:52:46.934Z,13.11
2022-10-06T04:53:46.889Z,13.12
2022-10-06T04:54:46.878Z,13.15
2022-10-06T04:55:46.877Z,13.04
2022-10-06T04:56:46.905Z,12.89
2022-10-06T04:57:46.837Z,12.92
2022-10-06T04:58:46.838Z,12.92
2022-10-06T04:59:46.820Z,12.92
2022-10-06T05:00:46.845Z,12.89
2022-10-06T05:01:46.985Z,12.84
2022-10-06T05:02:46.799Z,12.88
2022-10-06T05:03:46.788Z,12.79
2022-10-06T05:04:46.784Z,12.92
2022-10-06T05:05:46.765Z,12.78
2022-10-06T05:06:46.770Z,12.71
2022-10-06T05:07:46.745Z,12.82
2022-10-06T05:08:46.736Z,12.78
2022-10-06T05:09:46.732Z,12.67
2022-10-06T05:10:46.720Z,12.66
2022-10-06T05:11:46.732Z,12.67
2022-10-06T05:12:46.701Z,12.69
2022-10-06T05:13:46.688Z,12.64
2022-10-06T05:14:46.680Z,12.60
2022-10-06T05:15:46.669Z,12.62
2022-10-06T05:16:46.729Z,12.45
2022-10-06T05:17:46.650Z,12.59
2022-10-06T05:18:46.654Z,12.48
2022-10-06T05:19:47.623Z,12.54
2022-10-06T05:20:46.622Z,12.57
2022-10-06T05:21:46.631Z,12.46
2022-10-06T05:22:46.592Z,12.52
2022-10-06T05:23:46.592Z,12.44
2022-10-06T05:24:46.583Z,12.39
2022-10-06T05:25:46.564Z,12.45
2022-10-06T05:26:46.582Z,12.48
2022-10-06T05:27:46.549Z,12.44
2022-10-06T05:28:46.610Z,12.46
2022-10-06T05:29:46.524Z,12.27
2022-10-06T05:30:46.524Z,12.34
2022-10-06T05:31:46.685Z,12.39
2022-10-06T05:32:46.504Z,12.45
2022-10-06T05:33:46.490Z,12.42
2022-10-06T05:34:46.482Z,12.41
2022-10-06T05:35:46.466Z,12.44
2022-10-06T05:36:46.477Z,12.41
2022-10-06T05:37:46.449Z,12.44
2022-10-06T05:38:46.436Z,12.44
2022-10-06T05:39:46.434Z,12.39
2022-10-06T05:40:46.428Z,12.38
2022-10-06T05:41:46.439Z,12.38
2022-10-06T05:42:46.401Z,12.33
2022-10-06T05:43:46.394Z,12.26
2022-10-06T05:44:46.384Z,12.39
2022-10-06T05:45:46.391Z,12.39
2022-10-06T05:46:46.390Z,12.37
2022-10-06T05:47:46.355Z,12.31
2022-10-06T05:48:46.337Z,12.23
2022-10-06T05:49:46.340Z,12.33
2022-10-06T05:50:46.326Z,12.31
2022-10-06T05:51:46.370Z,12.31
2022-10-06T05:52:47.308Z,12.27
2022-10-06T05:53:46.291Z,12.33
2022-10-06T05:54:46.303Z,12.33
2022-10-06T05:55:46.277Z,12.33
2022-10-06T05:56:46.285Z,12.38
2022-10-06T05:57:46.253Z,12.31
2022-10-06T05:58:46.244Z,12.38
2022-10-06T05:59:46.238Z,12.39
2022-10-06T06:00:46.230Z,12.34
2022-10-06T06:01:46.279Z,12.33
2022-10-06T06:02:46.252Z,12.31
2022-10-06T06:03:46.200Z,12.45
2022-10-06T06:04:46.189Z,12.30
2022-10-06T06:05:46.176Z,12.29
2022-10-06T06:06:46.183Z,12.39
2022-10-06T06:07:46.161Z,12.42
2022-10-06T06:08:46.152Z,12.38
2022-10-06T06:09:46.141Z,12.44
2022-10-06T06:10:46.128Z,12.31
2022-10-06T06:11:46.133Z,12.42
2022-10-06T06:12:46.109Z,12.39
2022-10-06T06:13:46.089Z,12.37
2022-10-06T06:14:46.085Z,12.42
2022-10-06T06:15:46.077Z,12.51
2022-10-06T06:16:46.113Z,12.42
2022-10-06T06:17:46.054Z,12.46
2022-10-06T06:18:46.047Z,12.42
2022-10-06T06:19:46.040Z,12.45
2022-10-06T06:20:46.036Z,12.52
2022-10-06T06:21:46.032Z,12.52
2022-10-06T06:22:46.001Z,12.48
2022-10-06T06:23:45.993Z,12.59
2022-10-06T06:24:45.985Z,12.54
2022-10-06T06:25:45.973Z,12.59
2022-10-06T06:26:45.988Z,12.49
2022-10-06T06:27:45.961Z,12.59
2022-10-06T06:28:45.977Z,12.56
2022-10-06T06:29:45.941Z,12.62
2022-10-06T06:30:45.952Z,12.62
2022-10-06T06:31:45.998Z,12.70
2022-10-06T06:32:45.904Z,12.63
2022-10-06T06:33:45.901Z,12.66
2022-10-06T06:34:45.888Z,12.71
2022-10-06T06:35:45.881Z,12.71
2022-10-06T06:36:45.890Z,12.75
2022-10-06T06:37:45.856Z,12.78
2022-10-06T06:38:45.844Z,12.82
2022-10-06T06:39:45.836Z,12.82
2022-10-06T06:40:45.820Z,12.82
2022-10-06T06:41:45.834Z,12.85
2022-10-06T06:42:48.248Z,12.88
2022-10-06T06:43:46.793Z,12.85
2022-10-06T06:44:45.790Z,12.85
2022-10-06T06:45:45.796Z,12.95
2022-10-06T06:46:45.784Z,12.95
2022-10-06T06:47:45.763Z,13.00
2022-10-06T06:48:45.744Z,12.96
2022-10-06T06:49:45.742Z,13.03
2022-10-06T06:50:45.753Z,13.03
2022-10-06T06:51:45.743Z,13.04
2022-10-06T06:52:45.707Z,13.06
2022-10-06T06:53:45.777Z,13.09
2022-10-06T06:54:45.693Z,13.09
2022-10-06T06:55:45.682Z,13.22
2022-10-06T06:56:45.718Z,13.12
2022-10-06T06:57:45.756Z,13.12
2022-10-06T06:58:45.649Z,13.17
2022-10-06T06:59:45.637Z,13.20
2022-10-06T07:00:45.628Z,13.17
2022-10-06T07:01:45.853Z,13.27
2022-10-06T07:02:45.607Z,13.30
2022-10-06T07:03:57.033Z,13.30
2022-10-06T07:04:47.593Z,13.21
2022-10-06T07:05:45.576Z,13.24
2022-10-06T07:06:45.589Z,13.20
2022-10-06T07:07:45.563Z,13.32
2022-10-06T07:08:45.545Z,13.29
2022-10-06T07:09:45.547Z,13.32
2022-10-06T07:10:45.535Z,13.25
2022-10-06T07:11:45.540Z,13.43
2022-10-06T07:12:45.508Z,13.38
2022-10-06T07:13:45.506Z,13.38
2022-10-06T07:14:45.493Z,13.47
2022-10-06T07:15:45.503Z,13.37
2022-10-06T07:16:45.498Z,13.37
2022-10-06T07:17:45.467Z,13.43
2022-10-06T07:18:45.468Z,13.54
2022-10-06T07:19:45.452Z,13.43
2022-10-06T07:20:45.446Z,13.46
2022-10-06T07:21:45.445Z,13.55
2022-10-06T07:22:45.420Z,13.47
2022-10-06T07:23:45.412Z,13.55
2022-10-06T07:24:45.391Z,13.56
2022-10-06T07:25:45.387Z,13.65
2022-10-06T07:26:45.395Z,13.61
2022-10-06T07:27:45.382Z,13.61
2022-10-06T07:28:45.357Z,13.69
2022-10-06T07:29:45.346Z,13.73
2022-10-06T07:30:45.340Z,13.81
2022-10-06T07:31:45.366Z,13.79
2022-10-06T07:32:45.320Z,13.69
2022-10-06T07:33:45.303Z,13.69
2022-10-06T07:34:45.297Z,13.76
2022-10-06T07:35:45.282Z,13.77
2022-10-06T07:37:17.194Z,13.84
2022-10-06T07:37:45.269Z,13.80
2022-10-06T07:38:45.262Z,13.76
2022-10-06T07:39:45.244Z,13.77
2022-10-06T07:40:50.685Z,13.79
2022-10-06T07:41:47.245Z,13.70
2022-10-06T07:42:45.220Z,13.76
2022-10-06T07:43:45.207Z,13.89
2022-10-06T07:44:45.200Z,13.79
2022-10-06T07:45:45.298Z,13.92
2022-10-06T07:46:45.195Z,13.92
2022-10-06T07:47:45.160Z,14.02
2022-10-06T07:48:45.163Z,13.99
2022-10-06T07:49:45.154Z,14.12
2022-10-06T07:50:45.143Z,14.01
2022-10-06T07:51:45.136Z,14.17
2022-10-06T07:52:45.114Z,14.14
2022-10-06T07:53:45.111Z,14.29
2022-10-06T07:54:45.104Z,14.24
2022-10-06T07:55:45.093Z,14.13
2022-10-06T07:56:45.098Z,14.19
2022-10-06T07:57:45.109Z,14.21
2022-10-06T07:58:45.069Z,14.25
2022-10-06T07:59:45.050Z,14.20
2022-10-06T08:00:45.038Z,14.39
2022-10-06T08:01:45.079Z,14.29
2022-10-06T08:02:45.079Z,14.20
2022-10-06T08:03:45.011Z,14.21
2022-10-06T08:04:45.016Z,14.25
2022-10-06T08:05:44.989Z,14.21
2022-10-06T08:06:44.998Z,14.32
2022-10-06T08:07:44.965Z,14.38
2022-10-06T08:08:47.101Z,14.42
2022-10-06T08:09:45.966Z,14.46
2022-10-06T08:10:44.941Z,14.50
2022-10-06T08:11:44.946Z,14.46
2022-10-06T08:12:44.917Z,14.37
2022-10-06T08:13:44.908Z,14.28
2022-10-06T08:14:44.901Z,14.34
2022-10-06T08:15:44.948Z,14.39
2022-10-06T08:16:44.903Z,14.32
2022-10-06T08:17:44.874Z,14.47
2022-10-06T08:18:47.023Z,14.49
2022-10-06T08:19:45.846Z,14.60
2022-10-06T08:20:44.838Z,14.61
2022-10-06T08:21:44.828Z,14.53
2022-10-06T08:22:44.945Z,14.60
2022-10-06T08:23:44.807Z,14.64
2022-10-06T08:25:04.839Z,14.54
2022-10-06T08:25:46.791Z,14.62
2022-10-06T08:26:44.787Z,14.57
2022-10-06T08:27:44.788Z,14.68
2022-10-06T08:28:44.819Z,14.71
2022-10-06T08:29:44.753Z,14.94
2022-10-06T08:30:44.743Z,15.08
2022-10-06T08:31:44.791Z,15.12
2022-10-06T08:32:44.740Z,14.83
2022-10-06T08:33:44.717Z,14.90
2022-10-06T08:34:44.704Z,14.86
2022-10-06T08:35:44.687Z,14.71
2022-10-06T08:36:56.927Z,14.67
2022-10-06T08:37:46.688Z,14.64
2022-10-06T08:38:44.666Z,14.56
2022-10-06T08:39:44.654Z,14.60
2022-10-06T08:40:44.650Z,14.62
2022-10-06T08:41:44.656Z,14.71
2022-10-06T08:42:44.645Z,14.81
2022-10-06T08:43:44.612Z,14.74
2022-10-06T08:44:44.613Z,14.71
2022-10-06T08:45:44.741Z,14.62
2022-10-06T08:46:44.596Z,14.69
2022-10-06T08:47:44.591Z,14.64
2022-10-06T08:48:44.573Z,14.68
2022-10-06T08:49:44.565Z,14.64
2022-10-06T08:50:44.554Z,14.53
2022-10-06T08:51:44.530Z,14.67
2022-10-06T08:52:44.550Z,14.64
2022-10-06T08:53:44.554Z,14.78
2022-10-06T08:54:44.509Z,14.75
2022-10-06T08:55:44.492Z,15.01
2022-10-06T08:56:44.495Z,15.19
2022-10-06T08:57:44.501Z,15.31
2022-10-06T08:58:44.477Z,15.33
2022-10-06T08:59:44.470Z,15.41
2022-10-06T09:00:44.464Z,15.41
2022-10-06T09:01:44.574Z,15.26
2022-10-06T09:02:44.509Z,15.28
2022-10-06T09:03:44.425Z,15.27
2022-10-06T09:04:44.444Z,15.35
2022-10-06T09:05:44.408Z,15.42
2022-10-06T09:06:44.420Z,15.48
2022-10-06T09:07:44.382Z,15.61
2022-10-06T09:08:44.376Z,15.61
2022-10-06T09:09:44.366Z,15.54
2022-10-06T09:10:44.364Z,15.68
2022-10-06T09:11:44.369Z,15.76
2022-10-06T09:12:44.346Z,15.79
2022-10-06T09:13:44.328Z,15.61
2022-10-06T09:14:44.322Z,15.68
2022-10-06T09:15:44.334Z,15.72
2022-10-06T09:16:44.318Z,15.66
2022-10-06T09:17:44.294Z,15.43
2022-10-06T09:19:06.884Z,15.41
2022-10-06T09:19:46.270Z,15.35
2022-10-06T09:20:44.274Z,15.30
2022-10-06T09:21:44.277Z,15.17
2022-10-06T09:22:44.241Z,15.27
2022-10-06T09:23:44.234Z,15.31
2022-10-06T09:24:47.403Z,15.35
2022-10-06T09:25:45.212Z,15.28
2022-10-06T09:26:44.226Z,15.12
2022-10-06T09:27:44.193Z,15.27
2022-10-06T09:28:44.249Z,15.30
2022-10-06T09:29:44.169Z,15.42
2022-10-06T09:30:44.160Z,15.26
2022-10-06T09:31:44.240Z,15.26
2022-10-06T09:32:44.147Z,15.30
2022-10-06T09:33:44.133Z,15.19
2022-10-06T09:34:44.122Z,15.17
2022-10-06T09:35:44.103Z,15.13
2022-10-06T09:36:44.107Z,15.28
2022-10-06T09:37:44.116Z,15.28
2022-10-06T09:38:44.088Z,15.31
2022-10-06T09:39:44.074Z,15.39
2022-10-06T09:40:44.070Z,15.57
2022-10-06T09:41:44.099Z,15.52
2022-10-06T09:42:44.072Z,15.48
2022-10-06T09:43:44.035Z,15.42
2022-10-06T09:44:44.022Z,15.39
2022-10-06T09:45:44.014Z,15.26
2022-10-06T09:46:44.030Z,15.43
2022-10-06T09:47:43.993Z,15.48
2022-10-06T09:48:43.989Z,15.48
2022-10-06T09:49:43.976Z,15.57
2022-10-06T09:50:43.967Z,15.51
2022-10-06T09:51:44.007Z,15.49
2022-10-06T09:52:43.944Z,15.46
2022-10-06T09:53:43.943Z,15.26
2022-10-06T09:54:43.932Z,15.43
2022-10-06T09:55:43.915Z,15.43
2022-10-06T09:56:43.911Z,15.49
2022-10-06T09:57:43.920Z,15.63
2022-10-06T09:58:43.900Z,15.35
2022-10-06T09:59:43.878Z,15.26
2022-10-06T10:00:43.906Z,15.39
2022-10-06T10:01:43.866Z,15.60
2022-10-06T10:02:43.883Z,15.54
2022-10-06T10:03:51.493Z,15.52
2022-10-06T10:04:47.295Z,15.33
2022-10-06T10:05:44.823Z,15.33
2022-10-06T10:06:43.818Z,15.41
2022-10-06T10:07:43.818Z,15.45
2022-10-06T10:08:43.800Z,15.46
2022-10-06T10:09:43.783Z,15.56
2022-10-06T10:10:43.776Z,15.46
2022-10-06T10:11:43.765Z,15.49
2022-10-06T10:12:43.774Z,15.57
2022-10-06T10:13:43.740Z,15.56
2022-10-06T10:14:43.740Z,15.51
2022-10-06T10:15:43.824Z,15.60
2022-10-06T10:16:43.709Z,15.82
2022-10-06T10:17:43.726Z,15.79
2022-10-06T10:18:43.694Z,15.75
2022-10-06T10:19:43.680Z,15.97
2022-10-06T10:20:43.671Z,16.22
2022-10-06T10:21:43.657Z,16.12
2022-10-06T10:22:43.694Z,16.00
2022-10-06T10:23:43.639Z,16.14
2022-10-06T10:24:43.642Z,15.68
2022-10-06T10:25:43.621Z,15.57
2022-10-06T10:26:43.614Z,15.49
2022-10-06T10:27:43.610Z,15.57
2022-10-06T10:28:43.677Z,15.43
2022-10-06T10:29:43.583Z,15.48
2022-10-06T10:30:43.571Z,15.52
2022-10-06T10:31:43.590Z,15.63
2022-10-06T10:32:43.637Z,15.54
2022-10-06T10:33:49.804Z,15.76
2022-10-06T10:34:44.535Z,15.76
2022-10-06T10:35:43.528Z,15.63
2022-10-06T10:36:43.516Z,15.81
2022-10-06T10:37:43.537Z,15.92
2022-10-06T10:38:43.509Z,16.00
2022-10-06T10:39:43.491Z,16.09
2022-10-06T10:40:43.488Z,16.04
2022-10-06T10:41:43.481Z,16.23
2022-10-06T10:42:43.464Z,16.12
2022-10-06T10:43:43.460Z,16.14
2022-10-06T10:44:43.436Z,16.20
2022-10-06T10:45:43.430Z,16.30
2022-10-06T10:46:43.446Z,16.25
2022-10-06T10:47:43.428Z,16.25
2022-10-06T10:48:43.406Z,16.44
2022-10-06T10:49:43.404Z,16.40
2022-10-06T10:50:43.368Z,16.27
2022-10-06T10:51:43.393Z,16.15
2022-10-06T10:52:43.375Z,15.89
2022-10-06T10:53:43.346Z,15.86
2022-10-06T10:54:43.342Z,16.06
2022-10-06T10:55:43.330Z,16.16
2022-10-06T10:56:43.329Z,16.31
2022-10-06T10:57:43.325Z,16.33
2022-10-06T10:58:43.322Z,16.35
2022-10-06T10:59:43.280Z,16.25
2022-10-06T11:00:43.301Z,16.27
2022-10-06T11:01:43.286Z,16.25
2022-10-06T11:02:43.259Z,16.26
2022-10-06T11:03:43.246Z,16.41
2022-10-06T11:04:43.232Z,16.56
2022-10-06T11:05:43.222Z,16.83
2022-10-06T11:06:43.201Z,16.77
2022-10-06T11:07:43.226Z,16.88
2022-10-06T11:08:43.194Z,17.06
2022-10-06T11:09:43.203Z,17.26
2022-10-06T11:10:43.172Z,17.22
2022-10-06T11:11:43.163Z,17.29
2022-10-06T11:12:43.181Z,17.41
2022-10-06T11:13:43.145Z,17.38
2022-10-06T11:14:43.138Z,17.41
2022-10-06T11:15:43.117Z,17.51
2022-10-06T11:16:43.109Z,17.51
2022-10-06T11:17:43.118Z,17.43
2022-10-06T11:18:43.086Z,17.25
2022-10-06T11:19:43.076Z,17.33
2022-10-06T11:20:43.070Z,17.18
2022-10-06T11:21:43.102Z,17.10
2022-10-06T11:22:43.095Z,16.81
2022-10-06T11:23:43.033Z,16.83
2022-10-06T11:24:43.030Z,16.92
2022-10-06T11:25:43.022Z,16.98
2022-10-06T11:26:43.004Z,17.11
2022-10-06T11:27:43.026Z,17.20
2022-10-06T11:28:43.077Z,17.30
2022-10-06T11:29:42.982Z,17.36
2022-10-06T11:30:42.968Z,17.41
2022-10-06T11:31:42.992Z,17.40
2022-10-06T11:32:42.989Z,17.32
2022-10-06T11:33:42.941Z,17.32
2022-10-06T11:34:42.936Z,17.38
2022-10-06T11:35:42.923Z,17.46
2022-10-06T11:36:42.910Z,17.62
2022-10-06T11:37:42.932Z,17.69
2022-10-06T11:38:42.891Z,17.73
2022-10-06T11:39:42.873Z,17.69
2022-10-06T11:40:42.867Z,17.51
2022-10-06T11:41:42.859Z,17.44
2022-10-06T11:42:42.870Z,17.29
2022-10-06T11:43:42.841Z,17.32
2022-10-06T11:44:42.832Z,17.08
2022-10-06T11:45:42.876Z,16.93
2022-10-06T11:46:45.059Z,16.77
2022-10-06T11:47:43.814Z,16.88
2022-10-06T11:48:42.788Z,17.00
2022-10-06T11:49:42.773Z,16.99
2022-10-06T11:50:42.808Z,17.00
2022-10-06T11:51:42.758Z,16.90
2022-10-06T11:52:42.761Z,16.90
2022-10-06T11:53:42.739Z,16.95
2022-10-06T11:54:42.722Z,17.06
2022-10-06T11:55:42.716Z,17.22
2022-10-06T11:56:42.702Z,17.29
2022-10-06T11:57:43.715Z,17.44
2022-10-06T11:58:42.951Z,17.00
2022-10-06T11:59:42.670Z,16.85
2022-10-06T12:00:42.682Z,17.00
2022-10-06T12:01:42.701Z,16.99
2022-10-06T12:02:42.749Z,16.98
2022-10-06T12:03:42.632Z,17.00
2022-10-06T12:04:42.620Z,16.92
2022-10-06T12:05:56.220Z,17.17
2022-10-06T12:06:44.605Z,17.14
2022-10-06T12:07:42.601Z,17.25
2022-10-06T12:08:42.586Z,17.30
2022-10-06T12:09:44.607Z,17.43
2022-10-06T12:10:42.562Z,17.48
2022-10-06T12:11:42.553Z,17.38
2022-10-06T12:12:42.596Z,17.50
2022-10-06T12:16:32.291Z,17.57
2022-10-06T12:17:44.521Z,16.86
2022-10-06T12:18:42.477Z,16.73
2022-10-06T12:19:43.479Z,16.85
2022-10-06T12:20:42.468Z,16.93
2022-10-06T12:21:42.454Z,17.10
2022-10-06T12:22:42.467Z,17.22
2022-10-06T12:23:42.440Z,17.29
2022-10-06T12:24:42.429Z,17.47
2022-10-06T12:25:42.426Z,17.67
2022-10-06T12:26:42.412Z,17.51
2022-10-06T12:27:42.416Z,17.55
2022-10-06T12:28:42.434Z,17.64
2022-10-06T12:29:42.387Z,17.55
2022-10-06T12:30:42.414Z,17.62
2022-10-06T12:31:42.368Z,17.70
2022-10-06T12:32:42.374Z,17.82
2022-10-06T12:33:42.345Z,17.89
2022-10-06T12:34:42.333Z,17.89
2022-10-06T12:35:42.324Z,17.88
2022-10-06T12:36:44.978Z,17.79
2022-10-06T12:37:43.322Z,17.82
2022-10-06T12:38:42.298Z,17.57
2022-10-06T12:39:42.287Z,17.33
2022-10-06T12:40:42.273Z,17.43
2022-10-06T12:41:42.272Z,17.46
2022-10-06T12:42:42.275Z,17.36
2022-10-06T12:43:42.254Z,17.73
2022-10-06T12:44:42.232Z,17.55
2022-10-06T12:45:45.833Z,17.78
2022-10-06T12:46:43.317Z,17.74
2022-10-06T12:47:42.229Z,17.94
2022-10-06T12:48:42.194Z,17.88
2022-10-06T12:49:42.188Z,18.00
2022-10-06T12:50:42.171Z,18.09
2022-10-06T12:51:42.166Z,18.13
2022-10-06T12:52:42.178Z,18.10
2022-10-06T12:53:42.152Z,18.12
2022-10-06T12:54:42.144Z,18.07
2022-10-06T12:55:42.128Z,17.91